sensor_id;sensor_type;location;lat;lon;timestamp;temperature;humidity
16955;DHT22;8594;52.052;8.354;2024-02-26T00:01:50;6.30;99.90
16955;DHT22;8594;52.052;8.354;2024-02-26T00:04:17;6.30;99.90
16955;DHT22;8594;52.052;8.354;2024-02-26T00:06:44;6.20;99.90
16955;DHT22;8594;52.052;8.354;2024-02-26T00:09:11;6.20;99.90
16955;DHT22;8594;52.052;8.354;2024-02-26T00:11:38;6.10;99.90
16955;DHT22;8594;52.052;8.354;2024-02-26T00:14:05;6.10;99.90
16955;DHT22;8594;52.052;8.354;2024-02-26T00:16:31;6.10;99.90
16955;DHT22;8594;52.052;8.354;2024-02-26T00:18:59;6.20;99.90
16955;DHT22;8594;52.052;8.354;2024-02-26T00:21:26;6.20;99.90
16955;DHT22;8594;52.052;8.354;2024-02-26T00:23:53;6.10;99.90
16955;DHT22;8594;52.052;8.354;2024-02-26T00:26:20;6.20;99.90
16955;DHT22;8594;52.052;8.354;2024-02-26T00:28:46;6.10;99.90
16955;DHT22;8594;52.052;8.354;2024-02-26T00:31:13;6.10;99.90
16955;DHT22;8594;52.052;8.354;2024-02-26T00:33:40;6.10;99.90
16955;DHT22;8594;52.052;8.354;2024-02-26T00:36:08;6.10;99.90
16955;DHT22;8594;52.052;8.354;2024-02-26T00:38:35;6.00;99.90
16955;DHT22;8594;52.052;8.354;2024-02-26T00:41:02;6.00;99.90
16955;DHT22;8594;52.052;8.354;2024-02-26T00:43:29;6.00;99.90
16955;DHT22;8594;52.052;8.354;2024-02-26T00:45:56;6.00;99.90
16955;DHT22;8594;52.052;8.354;2024-02-26T00:48:22;6.10;99.90
16955;DHT22;8594;52.052;8.354;2024-02-26T00:50:51;6.00;99.90
16955;DHT22;8594;52.052;8.354;2024-02-26T00:53:19;6.00;99.90
16955;DHT22;8594;52.052;8.354;2024-02-26T00:55:45;6.00;99.90
16955;DHT22;8594;52.052;8.354;2024-02-26T00:58:12;6.00;99.90
16955;DHT22;8594;52.052;8.354;2024-02-26T01:00:39;6.00;99.90
16955;DHT22;8594;52.052;8.354;2024-02-26T01:03:05;6.00;99.90
16955;DHT22;8594;52.052;8.354;2024-02-26T01:05:32;6.10;99.90
16955;DHT22;8594;52.052;8.354;2024-02-26T01:07:59;6.10;99.90
16955;DHT22;8594;52.052;8.354;2024-02-26T01:10:27;6.00;99.90
16955;DHT22;8594;52.052;8.354;2024-02-26T01:12:54;6.10;99.90
16955;DHT22;8594;52.052;8.354;2024-02-26T01:15:20;6.20;99.90
16955;DHT22;8594;52.052;8.354;2024-02-26T01:17:49;6.10;99.90
16955;DHT22;8594;52.052;8.354;2024-02-26T01:20:15;6.10;99.90
16955;DHT22;8594;52.052;8.354;2024-02-26T01:22:42;6.10;99.90
16955;DHT22;8594;52.052;8.354;2024-02-26T01:25:09;6.10;99.90
16955;DHT22;8594;52.052;8.354;2024-02-26T01:27:38;6.10;99.90
16955;DHT22;8594;52.052;8.354;2024-02-26T01:30:07;6.10;99.90
16955;DHT22;8594;52.052;8.354;2024-02-26T01:32:35;6.10;99.90
16955;DHT22;8594;52.052;8.354;2024-02-26T01:35:01;6.20;99.90
16955;DHT22;8594;52.052;8.354;2024-02-26T01:37:30;6.10;99.90
16955;DHT22;8594;52.052;8.354;2024-02-26T01:39:57;6.10;99.90
16955;DHT22;8594;52.052;8.354;2024-02-26T01:42:24;6.20;99.90
16955;DHT22;8594;52.052;8.354;2024-02-26T01:44:52;6.20;99.90
16955;DHT22;8594;52.052;8.354;2024-02-26T01:47:18;6.10;99.90
16955;DHT22;8594;52.052;8.354;2024-02-26T01:49:45;6.00;99.90
16955;DHT22;8594;52.052;8.354;2024-02-26T01:52:12;6.00;99.90
16955;DHT22;8594;52.052;8.354;2024-02-26T01:54:40;5.90;99.90
16955;DHT22;8594;52.052;8.354;2024-02-26T01:57:12;5.80;99.90
16955;DHT22;8594;52.052;8.354;2024-02-26T01:59:40;5.70;99.90
16955;DHT22;8594;52.052;8.354;2024-02-26T02:02:10;5.60;99.90
16955;DHT22;8594;52.052;8.354;2024-02-26T02:04:39;5.50;99.90
16955;DHT22;8594;52.052;8.354;2024-02-26T02:07:06;5.40;99.90
16955;DHT22;8594;52.052;8.354;2024-02-26T02:09:33;5.20;99.90
16955;DHT22;8594;52.052;8.354;2024-02-26T02:12:00;5.20;99.90
16955;DHT22;8594;52.052;8.354;2024-02-26T02:14:27;5.10;99.90
16955;DHT22;8594;52.052;8.354;2024-02-26T02:16:54;5.10;99.90
16955;DHT22;8594;52.052;8.354;2024-02-26T02:19:22;5.10;99.90
16955;DHT22;8594;52.052;8.354;2024-02-26T02:21:50;4.90;99.90
16955;DHT22;8594;52.052;8.354;2024-02-26T02:24:17;4.90;99.90
16955;DHT22;8594;52.052;8.354;2024-02-26T02:26:44;4.90;99.90
16955;DHT22;8594;52.052;8.354;2024-02-26T02:29:11;4.90;99.90
16955;DHT22;8594;52.052;8.354;2024-02-26T02:31:39;5.00;99.90
16955;DHT22;8594;52.052;8.354;2024-02-26T02:34:06;5.00;99.90
16955;DHT22;8594;52.052;8.354;2024-02-26T02:36:33;5.10;99.90
16955;DHT22;8594;52.052;8.354;2024-02-26T02:39:01;5.10;99.90
16955;DHT22;8594;52.052;8.354;2024-02-26T02:41:28;5.20;99.90
16955;DHT22;8594;52.052;8.354;2024-02-26T02:43:55;5.20;99.90
16955;DHT22;8594;52.052;8.354;2024-02-26T02:46:23;5.30;99.90
16955;DHT22;8594;52.052;8.354;2024-02-26T02:48:49;5.40;99.90
16955;DHT22;8594;52.052;8.354;2024-02-26T02:51:16;5.50;99.90
16955;DHT22;8594;52.052;8.354;2024-02-26T02:53:43;5.50;99.90
16955;DHT22;8594;52.052;8.354;2024-02-26T02:56:11;5.70;99.90
16955;DHT22;8594;52.052;8.354;2024-02-26T02:58:37;5.70;99.90
16955;DHT22;8594;52.052;8.354;2024-02-26T03:01:04;5.80;99.90
16955;DHT22;8594;52.052;8.354;2024-02-26T03:03:31;5.70;99.90
16955;DHT22;8594;52.052;8.354;2024-02-26T03:05:58;5.70;99.90
16955;DHT22;8594;52.052;8.354;2024-02-26T03:08:24;5.60;99.90
16955;DHT22;8594;52.052;8.354;2024-02-26T03:10:51;5.50;99.90
16955;DHT22;8594;52.052;8.354;2024-02-26T03:13:19;5.60;99.90
16955;DHT22;8594;52.052;8.354;2024-02-26T03:15:46;5.50;99.90
16955;DHT22;8594;52.052;8.354;2024-02-26T03:18:13;5.50;99.90
16955;DHT22;8594;52.052;8.354;2024-02-26T03:20:40;5.40;99.90
16955;DHT22;8594;52.052;8.354;2024-02-26T03:23:06;5.50;99.90
16955;DHT22;8594;52.052;8.354;2024-02-26T03:25:37;5.50;99.90
16955;DHT22;8594;52.052;8.354;2024-02-26T03:28:04;5.70;99.90
16955;DHT22;8594;52.052;8.354;2024-02-26T03:30:33;5.70;99.90
16955;DHT22;8594;52.052;8.354;2024-02-26T03:33:00;5.80;99.90
16955;DHT22;8594;52.052;8.354;2024-02-26T03:35:26;5.80;99.90
16955;DHT22;8594;52.052;8.354;2024-02-26T03:37:53;5.80;99.90
16955;DHT22;8594;52.052;8.354;2024-02-26T03:40:20;5.80;99.90
16955;DHT22;8594;52.052;8.354;2024-02-26T03:42:47;5.90;99.90
16955;DHT22;8594;52.052;8.354;2024-02-26T03:45:14;5.90;99.90
16955;DHT22;8594;52.052;8.354;2024-02-26T03:47:42;6.00;99.90
16955;DHT22;8594;52.052;8.354;2024-02-26T03:50:09;6.00;99.90
16955;DHT22;8594;52.052;8.354;2024-02-26T03:52:36;6.00;99.90
16955;DHT22;8594;52.052;8.354;2024-02-26T03:55:03;6.00;99.90
16955;DHT22;8594;52.052;8.354;2024-02-26T03:57:30;6.00;99.90
16955;DHT22;8594;52.052;8.354;2024-02-26T03:59:57;6.10;99.90
16955;DHT22;8594;52.052;8.354;2024-02-26T04:02:24;6.20;99.90
16955;DHT22;8594;52.052;8.354;2024-02-26T04:04:52;6.20;99.90
16955;DHT22;8594;52.052;8.354;2024-02-26T04:07:19;6.30;99.90
16955;DHT22;8594;52.052;8.354;2024-02-26T04:09:45;6.40;99.90
16955;DHT22;8594;52.052;8.354;2024-02-26T04:12:12;6.40;99.90
16955;DHT22;8594;52.052;8.354;2024-02-26T04:14:39;6.50;99.90
16955;DHT22;8594;52.052;8.354;2024-02-26T04:17:06;6.50;99.90
16955;DHT22;8594;52.052;8.354;2024-02-26T04:19:33;6.50;99.90
16955;DHT22;8594;52.052;8.354;2024-02-26T04:22:02;6.50;99.90
16955;DHT22;8594;52.052;8.354;2024-02-26T04:24:28;6.40;99.90
16955;DHT22;8594;52.052;8.354;2024-02-26T04:26:55;6.40;99.90
16955;DHT22;8594;52.052;8.354;2024-02-26T04:29:22;6.30;99.90
16955;DHT22;8594;52.052;8.354;2024-02-26T04:31:49;6.20;99.90
16955;DHT22;8594;52.052;8.354;2024-02-26T04:34:15;6.20;99.90
16955;DHT22;8594;52.052;8.354;2024-02-26T04:36:42;6.20;99.90
16955;DHT22;8594;52.052;8.354;2024-02-26T04:39:10;6.30;99.90
16955;DHT22;8594;52.052;8.354;2024-02-26T04:41:37;6.20;99.90
16955;DHT22;8594;52.052;8.354;2024-02-26T04:44:04;6.20;99.90
16955;DHT22;8594;52.052;8.354;2024-02-26T04:46:31;6.20;99.90
16955;DHT22;8594;52.052;8.354;2024-02-26T04:48:58;6.10;99.90
16955;DHT22;8594;52.052;8.354;2024-02-26T04:51:24;6.10;99.90
16955;DHT22;8594;52.052;8.354;2024-02-26T04:53:51;6.10;99.90
16955;DHT22;8594;52.052;8.354;2024-02-26T04:56:20;6.20;99.90
16955;DHT22;8594;52.052;8.354;2024-02-26T04:58:47;6.30;99.90
16955;DHT22;8594;52.052;8.354;2024-02-26T05:01:15;6.40;99.90
16955;DHT22;8594;52.052;8.354;2024-02-26T05:03:42;6.30;99.90
16955;DHT22;8594;52.052;8.354;2024-02-26T05:06:09;6.30;99.90
16955;DHT22;8594;52.052;8.354;2024-02-26T05:08:36;6.30;99.90
16955;DHT22;8594;52.052;8.354;2024-02-26T05:11:04;6.20;99.90
16955;DHT22;8594;52.052;8.354;2024-02-26T05:13:32;6.20;99.90
16955;DHT22;8594;52.052;8.354;2024-02-26T05:15:59;6.10;99.90
16955;DHT22;8594;52.052;8.354;2024-02-26T05:18:27;6.10;99.90
16955;DHT22;8594;52.052;8.354;2024-02-26T05:20:54;6.00;99.90
16955;DHT22;8594;52.052;8.354;2024-02-26T05:23:21;6.00;99.90
16955;DHT22;8594;52.052;8.354;2024-02-26T05:25:48;6.00;99.90
16955;DHT22;8594;52.052;8.354;2024-02-26T05:28:15;5.90;99.90
16955;DHT22;8594;52.052;8.354;2024-02-26T05:30:45;5.80;99.90
16955;DHT22;8594;52.052;8.354;2024-02-26T05:33:11;5.80;99.90
16955;DHT22;8594;52.052;8.354;2024-02-26T05:35:39;5.90;99.90
16955;DHT22;8594;52.052;8.354;2024-02-26T05:38:06;5.90;99.90
16955;DHT22;8594;52.052;8.354;2024-02-26T05:40:33;5.90;99.90
16955;DHT22;8594;52.052;8.354;2024-02-26T05:43:00;6.00;99.90
16955;DHT22;8594;52.052;8.354;2024-02-26T05:45:26;6.00;99.90
16955;DHT22;8594;52.052;8.354;2024-02-26T05:47:54;5.90;99.90
16955;DHT22;8594;52.052;8.354;2024-02-26T05:50:21;6.00;99.90
16955;DHT22;8594;52.052;8.354;2024-02-26T05:52:48;6.10;99.90
16955;DHT22;8594;52.052;8.354;2024-02-26T05:55:15;6.00;99.90
16955;DHT22;8594;52.052;8.354;2024-02-26T05:57:41;6.00;99.90
16955;DHT22;8594;52.052;8.354;2024-02-26T06:00:09;5.90;99.90
16955;DHT22;8594;52.052;8.354;2024-02-26T06:02:38;6.00;99.90
16955;DHT22;8594;52.052;8.354;2024-02-26T06:05:06;6.10;99.90
16955;DHT22;8594;52.052;8.354;2024-02-26T06:07:34;6.10;99.90
16955;DHT22;8594;52.052;8.354;2024-02-26T06:10:01;6.10;99.90
16955;DHT22;8594;52.052;8.354;2024-02-26T06:12:30;6.10;99.90
16955;DHT22;8594;52.052;8.354;2024-02-26T06:14:57;6.20;99.90
16955;DHT22;8594;52.052;8.354;2024-02-26T06:17:26;6.20;99.90
16955;DHT22;8594;52.052;8.354;2024-02-26T06:19:54;6.10;99.90
16955;DHT22;8594;52.052;8.354;2024-02-26T06:22:22;6.10;99.90
16955;DHT22;8594;52.052;8.354;2024-02-26T06:24:48;6.10;99.90
16955;DHT22;8594;52.052;8.354;2024-02-26T06:27:15;6.00;99.90
16955;DHT22;8594;52.052;8.354;2024-02-26T06:29:42;6.00;99.90
16955;DHT22;8594;52.052;8.354;2024-02-26T06:32:08;5.90;99.90
16955;DHT22;8594;52.052;8.354;2024-02-26T06:34:35;5.80;99.90
16955;DHT22;8594;52.052;8.354;2024-02-26T06:37:03;5.80;99.90
16955;DHT22;8594;52.052;8.354;2024-02-26T06:39:31;5.80;99.90
16955;DHT22;8594;52.052;8.354;2024-02-26T06:41:58;5.90;99.90
16955;DHT22;8594;52.052;8.354;2024-02-26T06:44:27;5.90;99.90
16955;DHT22;8594;52.052;8.354;2024-02-26T06:46:57;5.90;99.90
16955;DHT22;8594;52.052;8.354;2024-02-26T06:49:25;5.90;99.90
16955;DHT22;8594;52.052;8.354;2024-02-26T06:51:51;5.90;99.90
16955;DHT22;8594;52.052;8.354;2024-02-26T06:54:18;5.90;99.90
16955;DHT22;8594;52.052;8.354;2024-02-26T06:56:47;5.90;99.90
16955;DHT22;8594;52.052;8.354;2024-02-26T06:59:13;5.90;99.90
16955;DHT22;8594;52.052;8.354;2024-02-26T07:01:41;5.90;99.90
16955;DHT22;8594;52.052;8.354;2024-02-26T07:04:08;5.90;99.90
16955;DHT22;8594;52.052;8.354;2024-02-26T07:06:36;6.00;99.90
16955;DHT22;8594;52.052;8.354;2024-02-26T07:09:03;6.00;99.90
16955;DHT22;8594;52.052;8.354;2024-02-26T07:11:30;6.00;99.90
16955;DHT22;8594;52.052;8.354;2024-02-26T07:13:58;6.10;99.90
16955;DHT22;8594;52.052;8.354;2024-02-26T07:16:26;6.00;99.90
16955;DHT22;8594;52.052;8.354;2024-02-26T07:18:53;6.10;99.90
16955;DHT22;8594;52.052;8.354;2024-02-26T07:21:20;6.10;99.90
16955;DHT22;8594;52.052;8.354;2024-02-26T07:23:46;6.10;99.90
16955;DHT22;8594;52.052;8.354;2024-02-26T07:26:13;6.10;99.90
16955;DHT22;8594;52.052;8.354;2024-02-26T07:28:40;6.10;99.90
16955;DHT22;8594;52.052;8.354;2024-02-26T07:31:08;6.00;99.90
16955;DHT22;8594;52.052;8.354;2024-02-26T07:33:35;6.00;99.90
16955;DHT22;8594;52.052;8.354;2024-02-26T07:36:02;6.00;99.90
16955;DHT22;8594;52.052;8.354;2024-02-26T07:38:29;6.00;99.90
16955;DHT22;8594;52.052;8.354;2024-02-26T07:40:56;5.90;99.90
16955;DHT22;8594;52.052;8.354;2024-02-26T07:43:23;5.90;99.90
16955;DHT22;8594;52.052;8.354;2024-02-26T07:45:50;5.90;99.90
16955;DHT22;8594;52.052;8.354;2024-02-26T07:48:18;5.90;99.90
16955;DHT22;8594;52.052;8.354;2024-02-26T07:50:44;6.00;99.90
16955;DHT22;8594;52.052;8.354;2024-02-26T07:53:11;6.00;99.90
16955;DHT22;8594;52.052;8.354;2024-02-26T07:55:38;6.00;99.90
16955;DHT22;8594;52.052;8.354;2024-02-26T07:58:05;6.00;99.90
16955;DHT22;8594;52.052;8.354;2024-02-26T08:00:31;5.90;99.90
16955;DHT22;8594;52.052;8.354;2024-02-26T08:02:58;5.90;99.90
16955;DHT22;8594;52.052;8.354;2024-02-26T08:05:26;6.00;99.90
16955;DHT22;8594;52.052;8.354;2024-02-26T08:07:53;6.00;99.90
16955;DHT22;8594;52.052;8.354;2024-02-26T08:10:20;5.80;99.90
16955;DHT22;8594;52.052;8.354;2024-02-26T08:12:47;5.80;99.90
16955;DHT22;8594;52.052;8.354;2024-02-26T08:15:13;5.80;99.90
16955;DHT22;8594;52.052;8.354;2024-02-26T08:17:40;5.90;99.90
16955;DHT22;8594;52.052;8.354;2024-02-26T08:20:08;5.90;99.90
16955;DHT22;8594;52.052;8.354;2024-02-26T08:22:36;5.90;99.90
16955;DHT22;8594;52.052;8.354;2024-02-26T08:25:05;6.00;99.90
16955;DHT22;8594;52.052;8.354;2024-02-26T08:27:34;6.10;99.90
16955;DHT22;8594;52.052;8.354;2024-02-26T08:30:01;6.10;99.90
16955;DHT22;8594;52.052;8.354;2024-02-26T08:32:28;6.00;99.90
16955;DHT22;8594;52.052;8.354;2024-02-26T08:34:54;6.10;99.90
16955;DHT22;8594;52.052;8.354;2024-02-26T08:37:21;6.10;99.90
16955;DHT22;8594;52.052;8.354;2024-02-26T08:39:49;6.10;99.90
16955;DHT22;8594;52.052;8.354;2024-02-26T08:42:16;6.20;99.90
16955;DHT22;8594;52.052;8.354;2024-02-26T08:44:42;6.20;99.90
16955;DHT22;8594;52.052;8.354;2024-02-26T08:47:09;6.30;99.90
16955;DHT22;8594;52.052;8.354;2024-02-26T08:49:36;6.30;99.90
16955;DHT22;8594;52.052;8.354;2024-02-26T08:52:04;6.30;99.90
16955;DHT22;8594;52.052;8.354;2024-02-26T08:54:31;6.30;99.90
16955;DHT22;8594;52.052;8.354;2024-02-26T08:56:59;6.20;99.90
16955;DHT22;8594;52.052;8.354;2024-02-26T08:59:26;6.30;99.90
16955;DHT22;8594;52.052;8.354;2024-02-26T09:01:53;6.30;99.90
16955;DHT22;8594;52.052;8.354;2024-02-26T09:04:19;6.20;99.90
16955;DHT22;8594;52.052;8.354;2024-02-26T09:06:46;6.30;99.90
16955;DHT22;8594;52.052;8.354;2024-02-26T09:09:14;6.30;99.90
16955;DHT22;8594;52.052;8.354;2024-02-26T09:11:41;6.40;99.90
16955;DHT22;8594;52.052;8.354;2024-02-26T09:14:09;6.30;99.90
16955;DHT22;8594;52.052;8.354;2024-02-26T09:16:36;6.40;99.90
16955;DHT22;8594;52.052;8.354;2024-02-26T09:19:02;6.40;99.90
16955;DHT22;8594;52.052;8.354;2024-02-26T09:21:29;6.40;99.90
16955;DHT22;8594;52.052;8.354;2024-02-26T09:23:56;6.50;99.90
16955;DHT22;8594;52.052;8.354;2024-02-26T09:26:22;6.50;99.90
16955;DHT22;8594;52.052;8.354;2024-02-26T09:28:49;6.60;99.90
16955;DHT22;8594;52.052;8.354;2024-02-26T09:31:17;6.60;99.90
16955;DHT22;8594;52.052;8.354;2024-02-26T09:33:44;6.60;99.90
16955;DHT22;8594;52.052;8.354;2024-02-26T09:36:11;6.60;99.90
16955;DHT22;8594;52.052;8.354;2024-02-26T09:38:39;6.70;99.90
16955;DHT22;8594;52.052;8.354;2024-02-26T09:41:05;6.70;99.90
16955;DHT22;8594;52.052;8.354;2024-02-26T09:43:35;6.70;99.90
16955;DHT22;8594;52.052;8.354;2024-02-26T09:46:03;6.70;99.90
16955;DHT22;8594;52.052;8.354;2024-02-26T09:48:32;6.70;99.90
16955;DHT22;8594;52.052;8.354;2024-02-26T09:51:02;7.00;99.90
16955;DHT22;8594;52.052;8.354;2024-02-26T09:53:30;7.00;99.90
16955;DHT22;8594;52.052;8.354;2024-02-26T09:55:58;6.90;99.90
16955;DHT22;8594;52.052;8.354;2024-02-26T09:58:25;7.10;99.90
16955;DHT22;8594;52.052;8.354;2024-02-26T10:00:56;7.10;99.90
16955;DHT22;8594;52.052;8.354;2024-02-26T10:03:30;7.10;99.90
16955;DHT22;8594;52.052;8.354;2024-02-26T10:06:06;7.20;99.90
16955;DHT22;8594;52.052;8.354;2024-02-26T10:08:33;7.20;99.90
16955;DHT22;8594;52.052;8.354;2024-02-26T10:11:02;7.00;99.90
16955;DHT22;8594;52.052;8.354;2024-02-26T10:13:30;7.00;99.90
16955;DHT22;8594;52.052;8.354;2024-02-26T10:15:57;7.30;99.90
16955;DHT22;8594;52.052;8.354;2024-02-26T10:18:24;7.20;99.90
16955;DHT22;8594;52.052;8.354;2024-02-26T10:21:01;7.30;99.90
16955;DHT22;8594;52.052;8.354;2024-02-26T10:23:28;7.10;99.90
16955;DHT22;8594;52.052;8.354;2024-02-26T10:25:55;7.10;99.90
16955;DHT22;8594;52.052;8.354;2024-02-26T10:28:22;7.10;99.90
16955;DHT22;8594;52.052;8.354;2024-02-26T10:30:51;7.10;99.90
16955;DHT22;8594;52.052;8.354;2024-02-26T10:33:18;7.30;99.90
16955;DHT22;8594;52.052;8.354;2024-02-26T10:35:46;7.30;99.90
16955;DHT22;8594;52.052;8.354;2024-02-26T10:38:14;7.20;99.90
16955;DHT22;8594;52.052;8.354;2024-02-26T10:40:45;7.30;99.90
16955;DHT22;8594;52.052;8.354;2024-02-26T10:43:12;7.30;99.90
16955;DHT22;8594;52.052;8.354;2024-02-26T10:45:40;7.30;99.90
16955;DHT22;8594;52.052;8.354;2024-02-26T10:48:09;7.50;99.90
16955;DHT22;8594;52.052;8.354;2024-02-26T10:50:38;7.60;99.90
16955;DHT22;8594;52.052;8.354;2024-02-26T10:53:13;7.50;99.90
16955;DHT22;8594;52.052;8.354;2024-02-26T10:55:47;7.40;99.90
16955;DHT22;8594;52.052;8.354;2024-02-26T10:58:16;7.50;99.90
16955;DHT22;8594;52.052;8.354;2024-02-26T11:00:43;7.40;99.90
16955;DHT22;8594;52.052;8.354;2024-02-26T11:03:12;7.70;99.90
16955;DHT22;8594;52.052;8.354;2024-02-26T11:05:41;7.70;99.90
16955;DHT22;8594;52.052;8.354;2024-02-26T11:08:10;7.70;99.90
16955;DHT22;8594;52.052;8.354;2024-02-26T11:10:40;7.60;99.90
16955;DHT22;8594;52.052;8.354;2024-02-26T11:13:10;7.70;99.90
16955;DHT22;8594;52.052;8.354;2024-02-26T11:15:40;7.60;99.90
16955;DHT22;8594;52.052;8.354;2024-02-26T11:18:07;7.70;99.90
16955;DHT22;8594;52.052;8.354;2024-02-26T11:20:38;7.70;99.90
16955;DHT22;8594;52.052;8.354;2024-02-26T11:23:07;7.90;99.90
16955;DHT22;8594;52.052;8.354;2024-02-26T11:25:35;8.00;99.90
16955;DHT22;8594;52.052;8.354;2024-02-26T11:28:06;7.90;99.90
16955;DHT22;8594;52.052;8.354;2024-02-26T11:30:39;8.10;99.90
16955;DHT22;8594;52.052;8.354;2024-02-26T11:33:11;8.10;99.90
16955;DHT22;8594;52.052;8.354;2024-02-26T11:35:39;8.00;99.90
16955;DHT22;8594;52.052;8.354;2024-02-26T11:38:06;8.00;99.90
16955;DHT22;8594;52.052;8.354;2024-02-26T11:40:38;8.10;99.90
16955;DHT22;8594;52.052;8.354;2024-02-26T11:43:07;8.10;99.90
16955;DHT22;8594;52.052;8.354;2024-02-26T11:45:50;8.00;99.90
16955;DHT22;8594;52.052;8.354;2024-02-26T11:48:22;7.90;99.90
16955;DHT22;8594;52.052;8.354;2024-02-26T11:50:52;7.80;99.90
16955;DHT22;8594;52.052;8.354;2024-02-26T11:53:20;7.90;99.90
16955;DHT22;8594;52.052;8.354;2024-02-26T11:55:48;7.80;99.90
16955;DHT22;8594;52.052;8.354;2024-02-26T11:58:16;7.90;99.90
16955;DHT22;8594;52.052;8.354;2024-02-26T12:00:43;7.90;99.90
16955;DHT22;8594;52.052;8.354;2024-02-26T12:03:10;7.90;99.90
16955;DHT22;8594;52.052;8.354;2024-02-26T12:05:37;7.90;99.90
16955;DHT22;8594;52.052;8.354;2024-02-26T12:08:07;8.00;99.90
16955;DHT22;8594;52.052;8.354;2024-02-26T12:10:36;8.00;99.90
16955;DHT22;8594;52.052;8.354;2024-02-26T12:13:09;7.90;99.90
16955;DHT22;8594;52.052;8.354;2024-02-26T12:15:40;8.00;99.90
16955;DHT22;8594;52.052;8.354;2024-02-26T12:18:10;8.10;99.90
16955;DHT22;8594;52.052;8.354;2024-02-26T12:20:42;8.20;99.90
16955;DHT22;8594;52.052;8.354;2024-02-26T12:23:13;8.10;99.90
16955;DHT22;8594;52.052;8.354;2024-02-26T12:25:41;8.00;99.90
16955;DHT22;8594;52.052;8.354;2024-02-26T12:28:09;7.90;99.90
16955;DHT22;8594;52.052;8.354;2024-02-26T12:30:36;8.10;99.90
16955;DHT22;8594;52.052;8.354;2024-02-26T12:33:04;8.10;99.90
16955;DHT22;8594;52.052;8.354;2024-02-26T12:35:34;8.00;99.90
16955;DHT22;8594;52.052;8.354;2024-02-26T12:38:02;8.10;99.90
16955;DHT22;8594;52.052;8.354;2024-02-26T12:40:31;8.00;99.90
16955;DHT22;8594;52.052;8.354;2024-02-26T12:42:58;8.10;99.90
16955;DHT22;8594;52.052;8.354;2024-02-26T12:45:25;8.10;99.90
16955;DHT22;8594;52.052;8.354;2024-02-26T12:47:53;8.10;99.90
16955;DHT22;8594;52.052;8.354;2024-02-26T12:50:21;8.20;99.90
16955;DHT22;8594;52.052;8.354;2024-02-26T12:52:50;8.10;99.90
16955;DHT22;8594;52.052;8.354;2024-02-26T12:55:19;8.20;99.90
16955;DHT22;8594;52.052;8.354;2024-02-26T12:57:47;8.30;99.90
16955;DHT22;8594;52.052;8.354;2024-02-26T13:00:18;8.30;99.90
16955;DHT22;8594;52.052;8.354;2024-02-26T13:02:48;8.40;99.90
16955;DHT22;8594;52.052;8.354;2024-02-26T13:05:18;8.40;99.90
16955;DHT22;8594;52.052;8.354;2024-02-26T13:07:47;8.20;99.90
16955;DHT22;8594;52.052;8.354;2024-02-26T13:10:14;8.10;99.90
16955;DHT22;8594;52.052;8.354;2024-02-26T13:12:43;8.00;99.90
16955;DHT22;8594;52.052;8.354;2024-02-26T13:15:14;8.10;99.90
16955;DHT22;8594;52.052;8.354;2024-02-26T13:17:42;8.10;99.90
16955;DHT22;8594;52.052;8.354;2024-02-26T13:20:09;8.20;99.90
16955;DHT22;8594;52.052;8.354;2024-02-26T13:22:37;8.20;99.90
16955;DHT22;8594;52.052;8.354;2024-02-26T13:25:06;8.40;99.90
16955;DHT22;8594;52.052;8.354;2024-02-26T13:27:33;8.40;99.90
16955;DHT22;8594;52.052;8.354;2024-02-26T13:30:05;8.40;99.90
16955;DHT22;8594;52.052;8.354;2024-02-26T13:32:36;8.40;99.90
16955;DHT22;8594;52.052;8.354;2024-02-26T13:35:08;8.40;99.90
16955;DHT22;8594;52.052;8.354;2024-02-26T13:37:36;8.50;99.90
16955;DHT22;8594;52.052;8.354;2024-02-26T13:40:08;8.50;99.90
16955;DHT22;8594;52.052;8.354;2024-02-26T13:42:36;8.60;99.90
16955;DHT22;8594;52.052;8.354;2024-02-26T13:45:04;8.60;99.90
16955;DHT22;8594;52.052;8.354;2024-02-26T13:47:32;8.60;99.90
16955;DHT22;8594;52.052;8.354;2024-02-26T13:49:59;8.70;99.90
16955;DHT22;8594;52.052;8.354;2024-02-26T13:52:27;8.50;99.90
16955;DHT22;8594;52.052;8.354;2024-02-26T13:54:54;8.50;99.90
16955;DHT22;8594;52.052;8.354;2024-02-26T13:57:22;8.60;99.90
16955;DHT22;8594;52.052;8.354;2024-02-26T13:59:49;8.60;99.90
16955;DHT22;8594;52.052;8.354;2024-02-26T14:02:17;8.60;99.90
16955;DHT22;8594;52.052;8.354;2024-02-26T14:04:44;8.60;99.90
16955;DHT22;8594;52.052;8.354;2024-02-26T14:07:11;8.50;99.90
16955;DHT22;8594;52.052;8.354;2024-02-26T14:09:38;8.70;99.90
16955;DHT22;8594;52.052;8.354;2024-02-26T14:12:05;8.60;99.90
16955;DHT22;8594;52.052;8.354;2024-02-26T14:14:34;8.60;99.90
16955;DHT22;8594;52.052;8.354;2024-02-26T14:17:04;8.70;99.90
16955;DHT22;8594;52.052;8.354;2024-02-26T14:19:31;8.60;99.90
16955;DHT22;8594;52.052;8.354;2024-02-26T14:21:57;8.50;99.90
16955;DHT22;8594;52.052;8.354;2024-02-26T14:24:24;8.50;99.90
16955;DHT22;8594;52.052;8.354;2024-02-26T14:26:51;8.60;99.90
16955;DHT22;8594;52.052;8.354;2024-02-26T14:29:18;8.50;99.90
16955;DHT22;8594;52.052;8.354;2024-02-26T14:31:46;8.50;99.90
16955;DHT22;8594;52.052;8.354;2024-02-26T14:34:13;8.50;99.90
16955;DHT22;8594;52.052;8.354;2024-02-26T14:36:39;8.50;99.90
16955;DHT22;8594;52.052;8.354;2024-02-26T14:39:07;8.50;99.90
16955;DHT22;8594;52.052;8.354;2024-02-26T14:41:36;8.50;99.90
16955;DHT22;8594;52.052;8.354;2024-02-26T14:44:03;8.50;99.90
16955;DHT22;8594;52.052;8.354;2024-02-26T14:46:30;8.60;99.90
16955;DHT22;8594;52.052;8.354;2024-02-26T14:48:58;8.70;99.90
16955;DHT22;8594;52.052;8.354;2024-02-26T14:51:24;8.70;99.90
16955;DHT22;8594;52.052;8.354;2024-02-26T14:53:51;8.70;99.90
16955;DHT22;8594;52.052;8.354;2024-02-26T14:56:18;8.70;99.90
16955;DHT22;8594;52.052;8.354;2024-02-26T14:58:45;8.80;99.90
16955;DHT22;8594;52.052;8.354;2024-02-26T15:01:12;9.00;99.90
16955;DHT22;8594;52.052;8.354;2024-02-26T15:03:39;8.90;99.90
16955;DHT22;8594;52.052;8.354;2024-02-26T15:06:07;8.80;99.90
16955;DHT22;8594;52.052;8.354;2024-02-26T15:08:34;8.70;99.90
16955;DHT22;8594;52.052;8.354;2024-02-26T15:11:01;8.80;99.90
16955;DHT22;8594;52.052;8.354;2024-02-26T15:13:28;8.80;99.90
16955;DHT22;8594;52.052;8.354;2024-02-26T15:15:55;8.80;99.90
16955;DHT22;8594;52.052;8.354;2024-02-26T15:18:22;8.80;99.90
16955;DHT22;8594;52.052;8.354;2024-02-26T15:20:48;8.90;99.90
16955;DHT22;8594;52.052;8.354;2024-02-26T15:23:17;9.00;99.90
16955;DHT22;8594;52.052;8.354;2024-02-26T15:25:44;9.10;99.90
16955;DHT22;8594;52.052;8.354;2024-02-26T15:28:11;9.00;99.90
16955;DHT22;8594;52.052;8.354;2024-02-26T15:30:40;9.00;99.90
16955;DHT22;8594;52.052;8.354;2024-02-26T15:33:07;8.90;99.90
16955;DHT22;8594;52.052;8.354;2024-02-26T15:35:34;9.10;99.90
16955;DHT22;8594;52.052;8.354;2024-02-26T15:38:02;9.10;99.90
16955;DHT22;8594;52.052;8.354;2024-02-26T15:40:30;9.10;99.90
16955;DHT22;8594;52.052;8.354;2024-02-26T15:42:57;8.80;99.90
16955;DHT22;8594;52.052;8.354;2024-02-26T15:45:24;8.80;99.90
16955;DHT22;8594;52.052;8.354;2024-02-26T15:47:51;8.80;99.90
16955;DHT22;8594;52.052;8.354;2024-02-26T15:50:18;8.90;99.90
16955;DHT22;8594;52.052;8.354;2024-02-26T15:52:45;8.90;99.90
16955;DHT22;8594;52.052;8.354;2024-02-26T15:55:12;8.70;99.90
16955;DHT22;8594;52.052;8.354;2024-02-26T15:57:42;8.60;99.90
16955;DHT22;8594;52.052;8.354;2024-02-26T16:00:10;8.50;99.90
16955;DHT22;8594;52.052;8.354;2024-02-26T16:02:37;8.40;99.90
16955;DHT22;8594;52.052;8.354;2024-02-26T16:05:05;8.40;99.90